sensor_id;sensor_type;location;lat;lon;timestamp;P1;durP1;ratioP1;P2;durP2;ratioP2
84133;SDS011;74235;48.688;9.708;2023-12-04T00:01:15;2.40;;;1.92;;
84133;SDS011;74235;48.688;9.708;2023-12-04T00:03:44;2.47;;;2.00;;
84133;SDS011;74235;48.688;9.708;2023-12-04T00:06:12;2.58;;;1.90;;
84133;SDS011;74235;48.688;9.708;2023-12-04T00:08:39;2.85;;;2.05;;
84133;SDS011;74235;48.688;9.708;2023-12-04T00:11:07;2.55;;;1.90;;
84133;SDS011;74235;48.688;9.708;2023-12-04T00:13:35;2.90;;;1.85;;
84133;SDS011;74235;48.688;9.708;2023-12-04T00:16:04;2.95;;;2.10;;
84133;SDS011;74235;48.688;9.708;2023-12-04T00:18:33;2.20;;;1.73;;
84133;SDS011;74235;48.688;9.708;2023-12-04T00:21:01;2.72;;;1.90;;
84133;SDS011;74235;48.688;9.708;2023-12-04T00:25:56;2.63;;;2.15;;
84133;SDS011;74235;48.688;9.708;2023-12-04T00:28:24;2.13;;;1.80;;
84133;SDS011;74235;48.688;9.708;2023-12-04T00:30:51;2.35;;;1.88;;
84133;SDS011;74235;48.688;9.708;2023-12-04T00:35:48;2.17;;;1.83;;
84133;SDS011;74235;48.688;9.708;2023-12-04T00:40:42;2.13;;;1.70;;
84133;SDS011;74235;48.688;9.708;2023-12-04T00:45:37;2.13;;;1.70;;
84133;SDS011;74235;48.688;9.708;2023-12-04T00:48:05;2.17;;;1.80;;
84133;SDS011;74235;48.688;9.708;2023-12-04T00:50:34;2.85;;;2.00;;
84133;SDS011;74235;48.688;9.708;2023-12-04T00:53:02;2.30;;;1.75;;
84133;SDS011;74235;48.688;9.708;2023-12-04T00:57:57;2.22;;;1.83;;
84133;SDS011;74235;48.688;9.708;2023-12-04T01:00:25;2.50;;;1.80;;
84133;SDS011;74235;48.688;9.708;2023-12-04T01:02:52;2.40;;;1.80;;
84133;SDS011;74235;48.688;9.708;2023-12-04T01:07:48;2.35;;;1.63;;
84133;SDS011;74235;48.688;9.708;2023-12-04T01:10:16;2.67;;;2.00;;
84133;SDS011;74235;48.688;9.708;2023-12-04T01:15:11;1.92;;;1.60;;
84133;SDS011;74235;48.688;9.708;2023-12-04T01:20:07;2.47;;;1.70;;
84133;SDS011;74235;48.688;9.708;2023-12-04T01:22:35;2.45;;;1.70;;
84133;SDS011;74235;48.688;9.708;2023-12-04T01:27:32;2.47;;;1.77;;
84133;SDS011;74235;48.688;9.708;2023-12-04T01:30:02;1.75;;;1.45;;
84133;SDS011;74235;48.688;9.708;2023-12-04T01:32:30;2.28;;;1.77;;
84133;SDS011;74235;48.688;9.708;2023-12-04T01:34:58;2.30;;;1.85;;
84133;SDS011;74235;48.688;9.708;2023-12-04T01:39:53;1.90;;;1.52;;
84133;SDS011;74235;48.688;9.708;2023-12-04T01:42:22;1.73;;;1.55;;
84133;SDS011;74235;48.688;9.708;2023-12-04T01:44:50;2.10;;;1.60;;
84133;SDS011;74235;48.688;9.708;2023-12-04T01:49:45;1.67;;;1.50;;
84133;SDS011;74235;48.688;9.708;2023-12-04T01:54:39;2.13;;;1.60;;
84133;SDS011;74235;48.688;9.708;2023-12-04T01:57:07;1.95;;;1.45;;
84133;SDS011;74235;48.688;9.708;2023-12-04T01:59:38;2.03;;;1.80;;
84133;SDS011;74235;48.688;9.708;2023-12-04T02:02:06;1.90;;;1.50;;
84133;SDS011;74235;48.688;9.708;2023-12-04T02:04:34;2.15;;;1.80;;
84133;SDS011;74235;48.688;9.708;2023-12-04T02:07:02;2.17;;;1.40;;
84133;SDS011;74235;48.688;9.708;2023-12-04T02:09:30;2.20;;;1.60;;
84133;SDS011;74235;48.688;9.708;2023-12-04T02:11:58;2.20;;;1.73;;
84133;SDS011;74235;48.688;9.708;2023-12-04T02:14:26;2.00;;;1.63;;
84133;SDS011;74235;48.688;9.708;2023-12-04T02:16:55;2.00;;;1.70;;
84133;SDS011;74235;48.688;9.708;2023-12-04T02:19:24;2.55;;;1.98;;
84133;SDS011;74235;48.688;9.708;2023-12-04T02:21:52;2.10;;;1.70;;
84133;SDS011;74235;48.688;9.708;2023-12-04T02:24:21;2.13;;;1.65;;
84133;SDS011;74235;48.688;9.708;2023-12-04T02:26:50;2.50;;;1.90;;
84133;SDS011;74235;48.688;9.708;2023-12-04T02:29:21;2.50;;;1.80;;
84133;SDS011;74235;48.688;9.708;2023-12-04T02:31:59;2.38;;;1.88;;
84133;SDS011;74235;48.688;9.708;2023-12-04T02:34:31;2.03;;;1.50;;
84133;SDS011;74235;48.688;9.708;2023-12-04T02:37:01;2.47;;;1.92;;
84133;SDS011;74235;48.688;9.708;2023-12-04T02:39:32;2.38;;;1.80;;
84133;SDS011;74235;48.688;9.708;2023-12-04T02:42:00;2.00;;;1.70;;
84133;SDS011;74235;48.688;9.708;2023-12-04T02:46:55;2.50;;;1.80;;
84133;SDS011;74235;48.688;9.708;2023-12-04T02:49:23;2.40;;;1.90;;
84133;SDS011;74235;48.688;9.708;2023-12-04T02:51:50;2.40;;;1.77;;
84133;SDS011;74235;48.688;9.708;2023-12-04T02:56:46;2.08;;;1.60;;
84133;SDS011;74235;48.688;9.708;2023-12-04T02:59:14;2.40;;;1.80;;
84133;SDS011;74235;48.688;9.708;2023-12-04T03:01:41;2.17;;;1.70;;
84133;SDS011;74235;48.688;9.708;2023-12-04T03:06:36;1.90;;;1.67;;
84133;SDS011;74235;48.688;9.708;2023-12-04T03:11:31;2.60;;;1.98;;
84133;SDS011;74235;48.688;9.708;2023-12-04T03:14:00;2.00;;;1.60;;
84133;SDS011;74235;48.688;9.708;2023-12-04T03:16:28;2.50;;;1.90;;
84133;SDS011;74235;48.688;9.708;2023-12-04T03:18:56;2.33;;;1.80;;
84133;SDS011;74235;48.688;9.708;2023-12-04T03:21:24;2.58;;;1.80;;
84133;SDS011;74235;48.688;9.708;2023-12-04T03:23:52;2.40;;;2.00;;
84133;SDS011;74235;48.688;9.708;2023-12-04T03:28:47;2.30;;;1.80;;
84133;SDS011;74235;48.688;9.708;2023-12-04T03:33:43;2.10;;;1.83;;
84133;SDS011;74235;48.688;9.708;2023-12-04T03:38:38;2.35;;;1.80;;
84133;SDS011;74235;48.688;9.708;2023-12-04T03:41:12;2.20;;;1.80;;
84133;SDS011;74235;48.688;9.708;2023-12-04T03:43:41;2.25;;;1.77;;
84133;SDS011;74235;48.688;9.708;2023-12-04T03:48:37;2.72;;;2.00;;
84133;SDS011;74235;48.688;9.708;2023-12-04T03:51:05;2.03;;;1.73;;
84133;SDS011;74235;48.688;9.708;2023-12-04T03:53:33;2.25;;;1.90;;
84133;SDS011;74235;48.688;9.708;2023-12-04T03:58:27;2.50;;;1.80;;
84133;SDS011;74235;48.688;9.708;2023-12-04T04:03:22;2.45;;;1.92;;
84133;SDS011;74235;48.688;9.708;2023-12-04T04:05:51;2.78;;;2.00;;
84133;SDS011;74235;48.688;9.708;2023-12-04T04:08:19;2.70;;;2.08;;
84133;SDS011;74235;48.688;9.708;2023-12-04T04:10:46;2.33;;;1.92;;
84133;SDS011;74235;48.688;9.708;2023-12-04T04:13:13;2.95;;;2.10;;
84133;SDS011;74235;48.688;9.708;2023-12-04T04:15:41;2.60;;;2.00;;
84133;SDS011;74235;48.688;9.708;2023-12-04T04:18:09;2.35;;;1.75;;
84133;SDS011;74235;48.688;9.708;2023-12-04T04:20:36;2.58;;;2.03;;
84133;SDS011;74235;48.688;9.708;2023-12-04T04:23:05;2.20;;;1.80;;
84133;SDS011;74235;48.688;9.708;2023-12-04T04:25:32;2.30;;;1.83;;
84133;SDS011;74235;48.688;9.708;2023-12-04T04:28:00;2.45;;;2.00;;
84133;SDS011;74235;48.688;9.708;2023-12-04T04:30:27;2.80;;;2.17;;
84133;SDS011;74235;48.688;9.708;2023-12-04T04:32:55;2.78;;;2.10;;
84133;SDS011;74235;48.688;9.708;2023-12-04T04:35:22;2.90;;;2.00;;
84133;SDS011;74235;48.688;9.708;2023-12-04T04:37:50;2.80;;;2.00;;
84133;SDS011;74235;48.688;9.708;2023-12-04T04:40:19;3.00;;;2.20;;
84133;SDS011;74235;48.688;9.708;2023-12-04T04:42:46;2.88;;;2.00;;
84133;SDS011;74235;48.688;9.708;2023-12-04T04:45:15;2.55;;;2.05;;
84133;SDS011;74235;48.688;9.708;2023-12-04T04:50:10;2.45;;;1.92;;
84133;SDS011;74235;48.688;9.708;2023-12-04T04:52:37;2.65;;;2.05;;
84133;SDS011;74235;48.688;9.708;2023-12-04T04:55:05;2.53;;;2.15;;
84133;SDS011;74235;48.688;9.708;2023-12-04T04:57:34;2.83;;;2.20;;
84133;SDS011;74235;48.688;9.708;2023-12-04T05:00:01;2.40;;;2.03;;
84133;SDS011;74235;48.688;9.708;2023-12-04T05:02:30;2.67;;;2.00;;
84133;SDS011;74235;48.688;9.708;2023-12-04T05:04:58;2.55;;;2.03;;
84133;SDS011;74235;48.688;9.708;2023-12-04T05:09:53;3.33;;;1.98;;
84133;SDS011;74235;48.688;9.708;2023-12-04T05:12:20;2.83;;;2.08;;
84133;SDS011;74235;48.688;9.708;2023-12-04T05:14:49;2.60;;;1.85;;
84133;SDS011;74235;48.688;9.708;2023-12-04T05:17:16;2.30;;;1.83;;
84133;SDS011;74235;48.688;9.708;2023-12-04T05:19:44;2.65;;;2.10;;
84133;SDS011;74235;48.688;9.708;2023-12-04T05:22:11;2.45;;;1.95;;
84133;SDS011;74235;48.688;9.708;2023-12-04T05:24:39;3.20;;;2.13;;
84133;SDS011;74235;48.688;9.708;2023-12-04T05:27:06;2.88;;;2.28;;
84133;SDS011;74235;48.688;9.708;2023-12-04T05:29:34;3.08;;;2.10;;
84133;SDS011;74235;48.688;9.708;2023-12-04T05:32:03;2.72;;;2.22;;
84133;SDS011;74235;48.688;9.708;2023-12-04T05:34:32;2.97;;;2.20;;
84133;SDS011;74235;48.688;9.708;2023-12-04T05:39:26;4.00;;;2.00;;
84133;SDS011;74235;48.688;9.708;2023-12-04T05:41:54;2.63;;;1.98;;
84133;SDS011;74235;48.688;9.708;2023-12-04T05:46:50;4.43;;;2.53;;
84133;SDS011;74235;48.688;9.708;2023-12-04T05:49:18;2.55;;;2.03;;
84133;SDS011;74235;48.688;9.708;2023-12-04T05:51:46;5.65;;;2.25;;
84133;SDS011;74235;48.688;9.708;2023-12-04T05:54:13;2.83;;;2.28;;
84133;SDS011;74235;48.688;9.708;2023-12-04T05:56:41;3.78;;;2.17;;
84133;SDS011;74235;48.688;9.708;2023-12-04T05:59:09;2.50;;;2.00;;
84133;SDS011;74235;48.688;9.708;2023-12-04T06:01:37;4.28;;;3.08;;
84133;SDS011;74235;48.688;9.708;2023-12-04T06:06:33;5.57;;;4.47;;
84133;SDS011;74235;48.688;9.708;2023-12-04T06:09:01;6.75;;;3.70;;
84133;SDS011;74235;48.688;9.708;2023-12-04T06:11:28;6.53;;;3.40;;
84133;SDS011;74235;48.688;9.708;2023-12-04T06:13:56;3.70;;;2.97;;
84133;SDS011;74235;48.688;9.708;2023-12-04T06:16:23;4.00;;;2.92;;
84133;SDS011;74235;48.688;9.708;2023-12-04T06:18:51;3.55;;;2.50;;
84133;SDS011;74235;48.688;9.708;2023-12-04T06:21:19;6.20;;;2.58;;
84133;SDS011;74235;48.688;9.708;2023-12-04T06:23:49;3.30;;;2.78;;
84133;SDS011;74235;48.688;9.708;2023-12-04T06:26:17;3.90;;;2.80;;
84133;SDS011;74235;48.688;9.708;2023-12-04T06:28:45;3.33;;;2.42;;
84133;SDS011;74235;48.688;9.708;2023-12-04T06:31:13;3.22;;;2.10;;
84133;SDS011;74235;48.688;9.708;2023-12-04T06:33:41;4.25;;;2.28;;
84133;SDS011;74235;48.688;9.708;2023-12-04T06:36:09;2.97;;;2.22;;
84133;SDS011;74235;48.688;9.708;2023-12-04T06:38:40;2.95;;;2.30;;
84133;SDS011;74235;48.688;9.708;2023-12-04T06:41:10;2.97;;;2.10;;
84133;SDS011;74235;48.688;9.708;2023-12-04T06:43:39;2.25;;;1.52;;
84133;SDS011;74235;48.688;9.708;2023-12-04T06:46:07;2.20;;;1.60;;
84133;SDS011;74235;48.688;9.708;2023-12-04T06:48:37;1.30;;;1.20;;
84133;SDS011;74235;48.688;9.708;2023-12-04T06:51:06;2.97;;;1.70;;
84133;SDS011;74235;48.688;9.708;2023-12-04T06:53:34;1.52;;;1.30;;
84133;SDS011;74235;48.688;9.708;2023-12-04T06:58:30;0.90;;;0.85;;
84133;SDS011;74235;48.688;9.708;2023-12-04T07:00:58;2.45;;;1.50;;
84133;SDS011;74235;48.688;9.708;2023-12-04T07:03:25;2.17;;;1.60;;
84133;SDS011;74235;48.688;9.708;2023-12-04T07:08:20;1.55;;;1.17;;
84133;SDS011;74235;48.688;9.708;2023-12-04T07:10:48;3.60;;;1.20;;
84133;SDS011;74235;48.688;9.708;2023-12-04T07:13:16;1.58;;;1.23;;
84133;SDS011;74235;48.688;9.708;2023-12-04T07:15:45;2.25;;;1.15;;
84133;SDS011;74235;48.688;9.708;2023-12-04T07:18:12;1.17;;;1.08;;
84133;SDS011;74235;48.688;9.708;2023-12-04T07:20:40;4.10;;;1.20;;
84133;SDS011;74235;48.688;9.708;2023-12-04T07:23:07;1.92;;;0.85;;
84133;SDS011;74235;48.688;9.708;2023-12-04T07:28:02;0.88;;;0.88;;
84133;SDS011;74235;48.688;9.708;2023-12-04T07:30:30;1.27;;;1.13;;
84133;SDS011;74235;48.688;9.708;2023-12-04T07:32:59;1.13;;;0.98;;
84133;SDS011;74235;48.688;9.708;2023-12-04T07:35:27;1.15;;;1.05;;
84133;SDS011;74235;48.688;9.708;2023-12-04T07:37:55;5.43;;;2.83;;
84133;SDS011;74235;48.688;9.708;2023-12-04T07:42:50;5.22;;;2.88;;
84133;SDS011;74235;48.688;9.708;2023-12-04T07:45:18;3.35;;;2.20;;
84133;SDS011;74235;48.688;9.708;2023-12-04T07:47:45;8.65;;;2.72;;
84133;SDS011;74235;48.688;9.708;2023-12-04T07:52:42;3.58;;;2.20;;
84133;SDS011;74235;48.688;9.708;2023-12-04T07:55:09;3.80;;;2.97;;
84133;SDS011;74235;48.688;9.708;2023-12-04T08:00:04;4.38;;;2.30;;
84133;SDS011;74235;48.688;9.708;2023-12-04T08:02:33;3.50;;;2.22;;
84133;SDS011;74235;48.688;9.708;2023-12-04T08:05:00;3.25;;;2.30;;
84133;SDS011;74235;48.688;9.708;2023-12-04T08:07:29;4.40;;;2.17;;
84133;SDS011;74235;48.688;9.708;2023-12-04T08:09:57;3.55;;;2.50;;
84133;SDS011;74235;48.688;9.708;2023-12-04T08:12:24;3.25;;;2.35;;
84133;SDS011;74235;48.688;9.708;2023-12-04T08:14:52;3.42;;;2.25;;
84133;SDS011;74235;48.688;9.708;2023-12-04T08:17:19;5.70;;;2.20;;
84133;SDS011;74235;48.688;9.708;2023-12-04T08:19:47;3.75;;;1.95;;
84133;SDS011;74235;48.688;9.708;2023-12-04T08:22:19;3.85;;;2.50;;
84133;SDS011;74235;48.688;9.708;2023-12-04T08:27:15;2.97;;;2.22;;
84133;SDS011;74235;48.688;9.708;2023-12-04T08:29:43;2.75;;;2.05;;
84133;SDS011;74235;48.688;9.708;2023-12-04T08:32:10;4.05;;;2.38;;
84133;SDS011;74235;48.688;9.708;2023-12-04T08:34:38;3.80;;;2.50;;
84133;SDS011;74235;48.688;9.708;2023-12-04T08:37:05;3.92;;;2.35;;
84133;SDS011;74235;48.688;9.708;2023-12-04T08:39:33;3.17;;;2.05;;
84133;SDS011;74235;48.688;9.708;2023-12-04T08:42:03;3.80;;;2.45;;
84133;SDS011;74235;48.688;9.708;2023-12-04T08:44:35;3.15;;;2.22;;
84133;SDS011;74235;48.688;9.708;2023-12-04T08:49:30;3.10;;;2.33;;
84133;SDS011;74235;48.688;9.708;2023-12-04T08:52:09;3.22;;;2.15;;
84133;SDS011;74235;48.688;9.708;2023-12-04T08:54:38;3.00;;;1.90;;
84133;SDS011;74235;48.688;9.708;2023-12-04T08:57:08;4.03;;;2.25;;
84133;SDS011;74235;48.688;9.708;2023-12-04T08:59:37;3.13;;;2.22;;
84133;SDS011;74235;48.688;9.708;2023-12-04T09:02:04;3.20;;;2.03;;
84133;SDS011;74235;48.688;9.708;2023-12-04T09:04:32;2.90;;;2.10;;
84133;SDS011;74235;48.688;9.708;2023-12-04T09:07:00;3.53;;;2.35;;
84133;SDS011;74235;48.688;9.708;2023-12-04T09:09:48;3.30;;;2.45;;
84133;SDS011;74235;48.688;9.708;2023-12-04T09:12:17;3.70;;;2.20;;
84133;SDS011;74235;48.688;9.708;2023-12-04T09:14:45;2.92;;;2.08;;
84133;SDS011;74235;48.688;9.708;2023-12-04T09:17:13;3.00;;;2.10;;
84133;SDS011;74235;48.688;9.708;2023-12-04T09:19:40;3.00;;;2.10;;
84133;SDS011;74235;48.688;9.708;2023-12-04T09:22:08;4.95;;;2.17;;
84133;SDS011;74235;48.688;9.708;2023-12-04T09:24:45;3.65;;;2.38;;
84133;SDS011;74235;48.688;9.708;2023-12-04T09:29:41;4.00;;;2.58;;
84133;SDS011;74235;48.688;9.708;2023-12-04T09:32:09;2.70;;;2.00;;
84133;SDS011;74235;48.688;9.708;2023-12-04T09:34:37;2.67;;;2.10;;
84133;SDS011;74235;48.688;9.708;2023-12-04T09:37:05;2.90;;;2.10;;
84133;SDS011;74235;48.688;9.708;2023-12-04T09:39:38;3.03;;;2.28;;
84133;SDS011;74235;48.688;9.708;2023-12-04T09:42:07;3.80;;;2.63;;
84133;SDS011;74235;48.688;9.708;2023-12-04T09:44:35;3.67;;;2.38;;
84133;SDS011;74235;48.688;9.708;2023-12-04T09:47:05;2.92;;;2.20;;
84133;SDS011;74235;48.688;9.708;2023-12-04T09:49:34;3.28;;;2.42;;
84133;SDS011;74235;48.688;9.708;2023-12-04T09:52:03;3.20;;;2.38;;
84133;SDS011;74235;48.688;9.708;2023-12-04T09:54:31;3.30;;;2.17;;
84133;SDS011;74235;48.688;9.708;2023-12-04T09:57:01;3.20;;;2.40;;
84133;SDS011;74235;48.688;9.708;2023-12-04T09:59:29;3.45;;;2.60;;
84133;SDS011;74235;48.688;9.708;2023-12-04T10:01:57;3.15;;;2.35;;
84133;SDS011;74235;48.688;9.708;2023-12-04T10:04:26;4.78;;;2.47;;
84133;SDS011;74235;48.688;9.708;2023-12-04T10:06:54;4.15;;;2.00;;
84133;SDS011;74235;48.688;9.708;2023-12-04T10:09:22;2.63;;;1.90;;
84133;SDS011;74235;48.688;9.708;2023-12-04T10:11:50;3.20;;;1.75;;
84133;SDS011;74235;48.688;9.708;2023-12-04T10:14:19;3.72;;;1.98;;
84133;SDS011;74235;48.688;9.708;2023-12-04T10:16:48;2.38;;;1.60;;
84133;SDS011;74235;48.688;9.708;2023-12-04T10:19:18;2.78;;;1.63;;
84133;SDS011;74235;48.688;9.708;2023-12-04T10:21:49;2.28;;;1.60;;
84133;SDS011;74235;48.688;9.708;2023-12-04T10:24:30;1.90;;;1.50;;
84133;SDS011;74235;48.688;9.708;2023-12-04T10:27:00;1.80;;;1.40;;
84133;SDS011;74235;48.688;9.708;2023-12-04T10:29:29;3.25;;;1.80;;
84133;SDS011;74235;48.688;9.708;2023-12-04T10:31:59;2.47;;;1.38;;
84133;SDS011;74235;48.688;9.708;2023-12-04T10:34:30;5.20;;;1.58;;
84133;SDS011;74235;48.688;9.708;2023-12-04T10:37:01;2.83;;;1.60;;
84133;SDS011;74235;48.688;9.708;2023-12-04T10:39:30;2.53;;;1.50;;
84133;SDS011;74235;48.688;9.708;2023-12-04T10:41:58;1.73;;;1.42;;
84133;SDS011;74235;48.688;9.708;2023-12-04T10:44:29;1.23;;;1.13;;
84133;SDS011;74235;48.688;9.708;2023-12-04T10:46:58;1.38;;;1.27;;
84133;SDS011;74235;48.688;9.708;2023-12-04T10:49:28;1.40;;;1.25;;
84133;SDS011;74235;48.688;9.708;2023-12-04T10:51:56;3.22;;;1.38;;
84133;SDS011;74235;48.688;9.708;2023-12-04T10:54:28;5.22;;;1.25;;
84133;SDS011;74235;48.688;9.708;2023-12-04T10:56:57;1.65;;;1.40;;
84133;SDS011;74235;48.688;9.708;2023-12-04T10:59:32;1.52;;;1.13;;
84133;SDS011;74235;48.688;9.708;2023-12-04T11:02:05;2.38;;;1.20;;
84133;SDS011;74235;48.688;9.708;2023-12-04T11:04:35;1.95;;;1.50;;
84133;SDS011;74235;48.688;9.708;2023-12-04T11:07:04;2.47;;;1.75;;
84133;SDS011;74235;48.688;9.708;2023-12-04T11:09:35;3.78;;;2.80;;
84133;SDS011;74235;48.688;9.708;2023-12-04T11:12:04;4.28;;;3.10;;
84133;SDS011;74235;48.688;9.708;2023-12-04T11:14:39;4.25;;;3.08;;
84133;SDS011;74235;48.688;9.708;2023-12-04T11:17:12;4.80;;;3.10;;
84133;SDS011;74235;48.688;9.708;2023-12-04T11:19:45;6.07;;;3.13;;
84133;SDS011;74235;48.688;9.708;2023-12-04T11:22:19;4.25;;;3.15;;
84133;SDS011;74235;48.688;9.708;2023-12-04T11:24:50;5.32;;;3.25;;
84133;SDS011;74235;48.688;9.708;2023-12-04T11:27:18;4.10;;;3.28;;
84133;SDS011;74235;48.688;9.708;2023-12-04T11:29:46;3.35;;;2.90;;
84133;SDS011;74235;48.688;9.708;2023-12-04T11:32:15;4.25;;;2.90;;
84133;SDS011;74235;48.688;9.708;2023-12-04T11:34:47;6.63;;;3.08;;
84133;SDS011;74235;48.688;9.708;2023-12-04T11:37:16;3.92;;;2.85;;
84133;SDS011;74235;48.688;9.708;2023-12-04T11:39:45;4.88;;;2.88;;
84133;SDS011;74235;48.688;9.708;2023-12-04T11:42:15;8.55;;;2.63;;
84133;SDS011;74235;48.688;9.708;2023-12-04T11:44:47;6.28;;;2.85;;
84133;SDS011;74235;48.688;9.708;2023-12-04T11:47:15;4.18;;;2.88;;
84133;SDS011;74235;48.688;9.708;2023-12-04T11:49:43;5.75;;;2.42;;
84133;SDS011;74235;48.688;9.708;2023-12-04T11:52:11;3.95;;;2.47;;
84133;SDS011;74235;48.688;9.708;2023-12-04T11:54:58;3.70;;;2.75;;
84133;SDS011;74235;48.688;9.708;2023-12-04T11:57:33;3.90;;;2.42;;
84133;SDS011;74235;48.688;9.708;2023-12-04T12:00:21;3.70;;;2.60;;
84133;SDS011;74235;48.688;9.708;2023-12-04T12:03:03;4.10;;;2.70;;
84133;SDS011;74235;48.688;9.708;2023-12-04T12:05:49;3.60;;;2.60;;
84133;SDS011;74235;48.688;9.708;2023-12-04T12:08:20;3.75;;;2.50;;
84133;SDS011;74235;48.688;9.708;2023-12-04T12:10:50;3.63;;;2.55;;
84133;SDS011;74235;48.688;9.708;2023-12-04T12:13:21;3.88;;;2.88;;
84133;SDS011;74235;48.688;9.708;2023-12-04T12:15:48;5.10;;;3.10;;
84133;SDS011;74235;48.688;9.708;2023-12-04T12:18:18;4.30;;;3.00;;
84133;SDS011;74235;48.688;9.708;2023-12-04T12:20:46;5.97;;;3.97;;
84133;SDS011;74235;48.688;9.708;2023-12-04T12:23:13;9.13;;;6.50;;
84133;SDS011;74235;48.688;9.708;2023-12-04T12:54:59;8.05;;;4.82;;
84133;SDS011;74235;48.688;9.708;2023-12-04T12:57:27;7.15;;;4.05;;
84133;SDS011;74235;48.688;9.708;2023-12-04T12:59:55;7.07;;;5.00;;
84133;SDS011;74235;48.688;9.708;2023-12-04T13:02:25;11.52;;;4.95;;
84133;SDS011;74235;48.688;9.708;2023-12-04T13:07:20;8.85;;;4.90;;
84133;SDS011;74235;48.688;9.708;2023-12-04T13:09:48;8.90;;;4.63;;
84133;SDS011;74235;48.688;9.708;2023-12-04T13:12:18;6.53;;;4.60;;
84133;SDS011;74235;48.688;9.708;2023-12-04T13:14:46;7.10;;;4.65;;
84133;SDS011;74235;48.688;9.708;2023-12-04T13:17:13;10.10;;;4.97;;
84133;SDS011;74235;48.688;9.708;2023-12-04T13:19:40;9.23;;;5.20;;
84133;SDS011;74235;48.688;9.708;2023-12-04T13:22:08;16.30;;;5.78;;
84133;SDS011;74235;48.688;9.708;2023-12-04T13:24:35;13.93;;;5.07;;
84133;SDS011;74235;48.688;9.708;2023-12-04T13:27:03;12.52;;;4.65;;
84133;SDS011;74235;48.688;9.708;2023-12-04T13:29:31;9.85;;;4.60;;
84133;SDS011;74235;48.688;9.708;2023-12-04T13:31:59;9.50;;;4.10;;
84133;SDS011;74235;48.688;9.708;2023-12-04T13:34:27;5.85;;;3.03;;
84133;SDS011;74235;48.688;9.708;2023-12-04T13:36:55;4.85;;;2.80;;
84133;SDS011;74235;48.688;9.708;2023-12-04T13:39:23;7.95;;;2.95;;
84133;SDS011;74235;48.688;9.708;2023-12-04T13:42:09;4.68;;;2.53;;
84133;SDS011;74235;48.688;9.708;2023-12-04T13:44:57;4.35;;;3.13;;
84133;SDS011;74235;48.688;9.708;2023-12-04T13:47:24;9.93;;;3.53;;
84133;SDS011;74235;48.688;9.708;2023-12-04T13:49:52;8.90;;;5.93;;
84133;SDS011;74235;48.688;9.708;2023-12-04T13:52:19;11.20;;;5.55;;
84133;SDS011;74235;48.688;9.708;2023-12-04T13:54:49;6.97;;;5.13;;
84133;SDS011;74235;48.688;9.708;2023-12-04T13:57:18;7.63;;;5.32;;
84133;SDS011;74235;48.688;9.708;2023-12-04T14:04:09;10.90;;;5.85;;
84133;SDS011;74235;48.688;9.708;2023-12-04T14:06:37;10.32;;;4.43;;
84133;SDS011;74235;48.688;9.708;2023-12-04T14:13:18;9.68;;;3.33;;
84133;SDS011;74235;48.688;9.708;2023-12-04T14:15:47;14.18;;;3.05;;
84133;SDS011;74235;48.688;9.708;2023-12-04T14:18:15;8.02;;;3.50;;
84133;SDS011;74235;48.688;9.708;2023-12-04T14:20:44;4.75;;;2.83;;
84133;SDS011;74235;48.688;9.708;2023-12-04T14:23:12;8.43;;;2.95;;
84133;SDS011;74235;48.688;9.708;2023-12-04T14:25:40;7.82;;;3.95;;
84133;SDS011;74235;48.688;9.708;2023-12-04T14:28:07;7.13;;;5.15;;
84133;SDS011;74235;48.688;9.708;2023-12-04T14:33:02;11.45;;;4.50;;
84133;SDS011;74235;48.688;9.708;2023-12-04T14:35:30;5.47;;;3.47;;
84133;SDS011;74235;48.688;9.708;2023-12-04T14:37:59;5.15;;;2.88;;
84133;SDS011;74235;48.688;9.708;2023-12-04T14:40:26;8.85;;;3.03;;
84133;SDS011;74235;48.688;9.708;2023-12-04T14:42:54;6.43;;;3.03;;
84133;SDS011;74235;48.688;9.708;2023-12-04T14:45:23;6.07;;;2.53;;
84133;SDS011;74235;48.688;9.708;2023-12-04T14:47:51;6.22;;;2.88;;
84133;SDS011;74235;48.688;9.708;2023-12-04T14:50:20;4.28;;;2.80;;
84133;SDS011;74235;48.688;9.708;2023-12-04T14:52:47;4.50;;;2.92;;
84133;SDS011;74235;48.688;9.708;2023-12-04T14:55:19;6.07;;;2.53;;
84133;SDS011;74235;48.688;9.708;2023-12-04T14:57:52;4.78;;;3.17;;
84133;SDS011;74235;48.688;9.708;2023-12-04T15:00:38;5.50;;;3.25;;
84133;SDS011;74235;48.688;9.708;2023-12-04T15:03:24;5.50;;;3.00;;
84133;SDS011;74235;48.688;9.708;2023-12-04T15:08:26;7.50;;;3.40;;
84133;SDS011;74235;48.688;9.708;2023-12-04T15:11:13;7.28;;;3.38;;
84133;SDS011;74235;48.688;9.708;2023-12-04T15:13:59;4.18;;;3.13;;
84133;SDS011;74235;48.688;9.708;2023-12-04T15:16:44;8.65;;;3.17;;
84133;SDS011;74235;48.688;9.708;2023-12-04T15:19:20;5.35;;;2.80;;
84133;SDS011;74235;48.688;9.708;2023-12-04T15:22:02;5.00;;;3.30;;
84133;SDS011;74235;48.688;9.708;2023-12-04T15:24:29;9.20;;;3.97;;
84133;SDS011;74235;48.688;9.708;2023-12-04T15:29:26;7.82;;;3.00;;
84133;SDS011;74235;48.688;9.708;2023-12-04T15:31:53;5.55;;;3.10;;
84133;SDS011;74235;48.688;9.708;2023-12-04T15:34:21;4.28;;;3.10;;
84133;SDS011;74235;48.688;9.708;2023-12-04T15:36:49;5.60;;;2.70;;
84133;SDS011;74235;48.688;9.708;2023-12-04T15:39:17;5.25;;;3.25;;
84133;SDS011;74235;48.688;9.708;2023-12-04T15:41:46;7.55;;;3.08;;
84133;SDS011;74235;48.688;9.708;2023-12-04T15:44:15;5.53;;;2.97;;
84133;SDS011;74235;48.688;9.708;2023-12-04T15:46:43;3.45;;;2.75;;
84133;SDS011;74235;48.688;9.708;2023-12-04T15:49:10;4.65;;;2.70;;
84133;SDS011;74235;48.688;9.708;2023-12-04T15:51:38;6.10;;;3.30;;
84133;SDS011;74235;48.688;9.708;2023-12-04T15:56:33;5.30;;;2.80;;
84133;SDS011;74235;48.688;9.708;2023-12-04T16:01:29;4.35;;;2.50;;
84133;SDS011;74235;48.688;9.708;2023-12-04T16:03:57;3.90;;;2.80;;
84133;SDS011;74235;48.688;9.708;2023-12-04T16:06:25;4.40;;;2.92;;
84133;SDS011;74235;48.688;9.708;2023-12-04T16:08:52;3.92;;;2.90;;
84133;SDS011;74235;48.688;9.708;2023-12-04T16:11:24;5.82;;;3.20;;
84133;SDS011;74235;48.688;9.708;2023-12-04T16:13:51;6.70;;;2.83;;
84133;SDS011;74235;48.688;9.708;2023-12-04T16:16:19;3.78;;;2.75;;
84133;SDS011;74235;48.688;9.708;2023-12-04T16:21:16;5.03;;;2.92;;
84133;SDS011;74235;48.688;9.708;2023-12-04T16:23:44;3.35;;;2.50;;
84133;SDS011;74235;48.688;9.708;2023-12-04T16:26:11;4.93;;;2.90;;
84133;SDS011;74235;48.688;9.708;2023-12-04T16:28:39;5.40;;;2.92;;
84133;SDS011;74235;48.688;9.708;2023-12-04T16:31:07;4.97;;;2.78;;
84133;SDS011;74235;48.688;9.708;2023-12-04T16:36:03;3.90;;;3.20;;
84133;SDS011;74235;48.688;9.708;2023-12-04T16:38:31;8.20;;;3.25;;
84133;SDS011;74235;48.688;9.708;2023-12-04T16:40:59;12.80;;;4.22;;
84133;SDS011;74235;48.688;9.708;2023-12-04T16:43:29;7.50;;;3.05;;
84133;SDS011;74235;48.688;9.708;2023-12-04T16:45:56;11.50;;;3.50;;
84133;SDS011;74235;48.688;9.708;2023-12-04T16:48:25;4.55;;;2.70;;
84133;SDS011;74235;48.688;9.708;2023-12-04T16:50:52;6.95;;;3.25;;
84133;SDS011;74235;48.688;9.708;2023-12-04T16:53:21;5.07;;;3.72;;
84133;SDS011;74235;48.688;9.708;2023-12-04T16:55:49;9.75;;;7.50;;
84133;SDS011;74235;48.688;9.708;2023-12-04T16:58:16;10.63;;;7.00;;
84133;SDS011;74235;48.688;9.708;2023-12-04T17:03:11;9.60;;;7.40;;
84133;SDS011;74235;48.688;9.708;2023-12-04T17:05:39;10.10;;;7.20;;
84133;SDS011;74235;48.688;9.708;2023-12-04T17:08:08;9.02;;;6.90;;
84133;SDS011;74235;48.688;9.708;2023-12-04T17:10:37;8.50;;;6.10;;
84133;SDS011;74235;48.688;9.708;2023-12-04T17:13:05;7.78;;;6.07;;
84133;SDS011;74235;48.688;9.708;2023-12-04T17:18:02;8.88;;;5.60;;
84133;SDS011;74235;48.688;9.708;2023-12-04T17:22:57;11.43;;;5.05;;
84133;SDS011;74235;48.688;9.708;2023-12-04T17:27:53;7.05;;;4.28;;
84133;SDS011;74235;48.688;9.708;2023-12-04T17:30:21;7.75;;;4.72;;
84133;SDS011;74235;48.688;9.708;2023-12-04T17:32:48;7.15;;;4.93;;
84133;SDS011;74235;48.688;9.708;2023-12-04T17:37:43;6.75;;;4.55;;